Time;durP1;ratioP1;P1;durP2;ratioP2;P2;SDS_P1;SDS_P2;PMS_P1;PMS_P2;Temp;Humidity;BMP_temperature;BMP_pressure;BME280_temperature;BME280_humidity;BME280_pressure;Samples;Min_cycle;Max_cycle;Signal;HPM_P1;HPM_P2
2021/07/17 00:02:05;;;;;;;30.02;9.20;;;;;;;15.67;79.99;102835.88;5027785;28;20079;-69
2021/07/17 00:04:30;;;;;;;32.70;9.10;;;;;;;15.70;79.59;102838.44;5027408;28;20021;-69
2021/07/17 00:06:55;;;;;;;27.27;8.77;;;;;;;15.74;79.38;102837.47;5027238;28;20123;-70
2021/07/17 00:09:21;;;;;;;31.55;8.55;;;;;;;15.77;79.21;102832.13;5027459;28;20384;-69
2021/07/17 00:11:47;;;;;;;28.83;8.10;;;;;;;15.79;79.01;102835.63;5009398;28;20036;-69
2021/07/17 00:14:12;;;;;;;29.52;7.75;;;;;;;15.80;79.48;102832.91;5026608;28;20057;-70
2021/07/17 00:16:38;;;;;;;32.03;9.32;;;;;;;15.81;79.16;102831.13;5027268;28;20026;-70
2021/07/17 00:19:04;;;;;;;34.47;9.38;;;;;;;15.82;79.23;102825.81;5027456;28;20029;-69
2021/07/17 00:21:29;;;;;;;32.72;8.75;;;;;;;15.79;79.88;102828.53;5027301;28;20022;-69
2021/07/17 00:23:54;;;;;;;45.45;10.20;;;;;;;15.82;79.84;102831.13;5009203;28;20067;-69
2021/07/17 00:26:20;;;;;;;35.33;8.85;;;;;;;15.85;79.67;102826.69;5008076;28;20029;-69
2021/07/17 00:28:45;;;;;;;39.50;9.73;;;;;;;15.88;79.91;102829.25;5027144;28;20032;-69
2021/07/17 00:31:11;;;;;;;34.30;9.57;;;;;;;15.88;79.74;102830.13;5026829;28;20025;-70
2021/07/17 00:33:36;;;;;;;35.45;9.93;;;;;;;15.92;79.61;102831.78;5027016;28;20032;-69
2021/07/17 00:36:02;;;;;;;33.75;8.80;;;;;;;15.95;80.03;102830.84;5013037;28;20036;-69
2021/07/17 00:38:27;;;;;;;37.88;9.55;;;;;;;15.95;79.81;102833.47;5021323;28;20040;-69
2021/07/17 00:40:53;;;;;;;30.35;9.65;;;;;;;15.95;79.25;102831.72;5026470;28;20018;-69
2021/07/17 00:43:18;;;;;;;33.03;8.95;;;;;;;15.96;79.14;102836.13;5026845;28;20051;-69
2021/07/17 00:45:43;;;;;;;30.95;8.98;;;;;;;15.97;78.76;102835.19;5026636;28;20512;-69
2021/07/17 00:48:09;;;;;;;35.05;9.75;;;;;;;16.01;79.31;102835.13;5027215;28;20028;-69
2021/07/17 00:50:34;;;;;;;38.13;9.70;;;;;;;16.01;78.82;102829.81;5027089;28;20029;-70
2021/07/17 00:52:59;;;;;;;28.10;9.50;;;;;;;16.05;78.37;102831.47;5026989;28;20021;-69
2021/07/17 00:55:26;;;;;;;34.88;8.98;;;;;;;16.03;78.54;102830.69;5026452;28;20021;-70
2021/07/17 00:57:52;;;;;;;32.13;8.77;;;;;;;16.06;78.16;102830.59;5009479;28;20052;-69
2021/07/17 01:00:18;;;;;;;37.05;8.88;;;;;;;16.04;78.70;102830.63;5008878;28;20103;-70
2021/07/17 01:02:46;;;;;;;35.38;9.38;;;;;;;16.04;78.84;102840.31;5027007;28;20155;-70
2021/07/17 01:05:13;;;;;;;30.75;7.93;;;;;;;16.02;78.52;102834.22;5008899;28;20116;-70
2021/07/17 01:07:38;;;;;;;29.98;8.48;;;;;;;16.03;78.69;102834.19;5027278;28;20064;-72
2021/07/17 01:10:09;;;;;;;38.28;9.40;;;;;;;16.02;79.00;102836.88;5008659;28;20057;-70
2021/07/17 01:12:35;;;;;;;35.08;9.10;;;;;;;15.99;78.98;102837.81;5026431;28;20018;-70
2021/07/17 01:15:01;;;;;;;29.70;9.52;;;;;;;16.04;78.76;102842.97;5027105;28;20382;-70
2021/07/17 01:17:26;;;;;;;30.58;8.45;;;;;;;16.01;78.57;102835.97;5008972;28;20026;-70
2021/07/17 01:19:52;;;;;;;30.85;9.13;;;;;;;16.02;79.00;102836.88;5026651;28;20567;-70
2021/07/17 01:22:18;;;;;;;43.58;10.13;;;;;;;15.97;78.96;102832.53;5008384;28;20030;-69
2021/07/17 01:24:44;;;;;;;37.42;10.05;;;;;;;15.94;79.22;102829.13;5026860;28;20383;-69
2021/07/17 01:27:13;;;;;;;33.13;8.63;;;;;;;15.92;79.37;102831.78;5012642;28;20412;-70
2021/07/17 01:29:39;;;;;;;33.28;8.35;;;;;;;15.86;79.35;102823.97;5030023;28;20029;-70
2021/07/17 01:32:05;;;;;;;37.10;10.02;;;;;;;15.80;79.58;102822.34;5012125;28;20072;-68
2021/07/17 01:34:30;;;;;;;30.92;9.40;;;;;;;15.74;79.95;102822.47;5030112;28;20025;-71
2021/07/17 01:36:55;;;;;;;34.60;10.30;;;;;;;15.69;80.31;102829.66;5030405;28;20417;-70
2021/07/17 01:39:22;;;;;;;40.15;9.65;;;;;;;15.71;79.29;102829.63;5029678;28;20033;-70
2021/07/17 01:41:47;;;;;;;41.00;10.10;;;;;;;15.67;79.97;102830.59;5012038;28;20470;-70
2021/07/17 01:44:12;;;;;;;37.28;9.95;;;;;;;15.58;80.76;102827.25;5029643;28;20025;-70
2021/07/17 01:46:38;;;;;;;37.72;9.90;;;;;;;15.52;80.88;102827.38;5030135;28;20037;-70
2021/07/17 01:49:03;;;;;;;31.73;8.75;;;;;;;15.46;80.76;102822.22;5029898;28;20071;-70
2021/07/17 01:51:28;;;;;;;41.45;10.52;;;;;;;15.40;81.24;102815.28;5011957;28;20021;-70
2021/07/17 01:53:57;;;;;;;33.45;10.10;;;;;;;15.35;81.08;102816.31;5011767;28;20057;-70
2021/07/17 01:56:26;;;;;;;34.30;10.02;;;;;;;15.28;81.65;102831.41;5012125;28;20028;-69
2021/07/17 01:58:55;;;;;;;36.63;10.77;;;;;;;15.28;81.70;102827.00;5029803;28;20021;-69
2021/07/17 02:01:24;;;;;;;31.50;9.63;;;;;;;15.26;81.67;102820.88;5011502;28;20057;-69
2021/07/17 02:03:50;;;;;;;36.10;9.60;;;;;;;15.23;81.78;102812.13;5030302;28;20033;-70
2021/07/17 02:06:25;;;;;;;37.42;8.48;;;;;;;15.21;81.94;102809.53;5011326;28;20304;-69
2021/07/17 02:08:52;;;;;;;34.35;8.85;;;;;;;15.22;81.78;102807.75;5029720;28;20495;-72
2021/07/17 02:11:17;;;;;;;34.10;9.38;;;;;;;15.18;82.28;102812.22;5029480;28;20544;-70
2021/07/17 02:13:42;;;;;;;31.52;9.60;;;;;;;15.18;82.44;102804.28;5030430;28;20026;-69
2021/07/17 02:16:10;;;;;;;33.80;8.55;;;;;;;15.10;82.79;102801.81;5029991;28;20128;-69
2021/07/17 02:18:36;;;;;;;35.83;10.02;;;;;;;15.07;83.15;102811.59;5013078;28;20017;-70
2021/07/17 02:21:08;;;;;;;38.42;9.82;;;;;;;15.04;83.19;102814.31;5012076;28;20040;-70
2021/07/17 02:23:37;;;;;;;31.02;8.20;;;;;;;15.05;82.86;102810.75;5030093;28;20021;-69
2021/07/17 02:26:03;;;;;;;38.70;9.75;;;;;;;15.05;82.60;102811.63;5030109;28;20083;-69
2021/07/17 02:28:28;;;;;;;40.85;10.20;;;;;;;15.00;82.97;102814.34;5029490;28;20036;-70
2021/07/17 02:30:54;;;;;;;38.13;9.35;;;;;;;14.99;82.91;102807.31;5027556;28;20483;-70
2021/07/17 02:33:19;;;;;;;31.88;10.35;;;;;;;14.93;83.50;102806.56;5028320;28;20470;-70
2021/07/17 02:35:45;;;;;;;40.10;10.10;;;;;;;14.88;83.23;102819.00;5028039;28;20353;-71
2021/07/17 02:38:11;;;;;;;37.55;9.50;;;;;;;14.85;83.60;102819.94;5028024;28;20025;-71
2021/07/17 02:40:36;;;;;;;34.78;10.27;;;;;;;14.73;84.16;102821.03;5028930;28;20401;-71
2021/07/17 02:43:02;;;;;;;37.42;11.05;;;;;;;14.67;84.68;102816.75;5028416;28;20030;-69
2021/07/17 02:45:27;;;;;;;46.90;11.57;;;;;;;14.60;84.64;102820.38;4994830;28;20035;-69
2021/07/17 02:47:52;;;;;;;35.70;10.32;;;;;;;14.56;85.01;102820.44;5028847;28;20048;-70
2021/07/17 02:50:18;;;;;;;44.35;11.27;;;;;;;14.52;85.01;102817.88;5028753;28;20214;-69
2021/07/17 02:52:44;;;;;;;42.65;11.63;;;;;;;14.51;85.07;102821.41;5028434;28;20045;-69
2021/07/17 02:55:09;;;;;;;36.22;11.13;;;;;;;14.47;85.11;102816.22;5028471;28;20107;-70
2021/07/17 02:57:35;;;;;;;32.67;11.18;;;;;;;14.45;85.18;102820.63;5028806;28;20104;-69
2021/07/17 03:00:00;;;;;;;38.88;11.00;;;;;;;14.41;85.29;102826.88;5010202;28;20025;-70
2021/07/17 03:02:26;;;;;;;34.85;9.75;;;;;;;14.41;85.14;102817.16;5010805;28;20040;-69
2021/07/17 03:04:52;;;;;;;41.80;11.50;;;;;;;14.40;85.35;102822.50;5028366;28;20029;-70
2021/07/17 03:07:17;;;;;;;37.50;10.77;;;;;;;14.36;85.47;102821.66;5029072;28;20026;-69
2021/07/17 03:09:42;;;;;;;46.55;12.18;;;;;;;14.36;85.55;102826.94;5009926;28;20029;-70
2021/07/17 03:12:08;;;;;;;45.80;12.30;;;;;;;14.29;85.92;102830.56;5028434;28;20092;-69
2021/07/17 03:14:33;;;;;;;38.97;11.20;;;;;;;14.26;86.29;102822.72;5028479;28;20025;-69
2021/07/17 03:16:59;;;;;;;33.53;11.00;;;;;;;14.28;85.57;102828.88;5028044;28;20104;-69
2021/07/17 03:19:24;;;;;;;41.97;12.07;;;;;;;14.25;86.26;102827.16;5028219;28;20025;-69
2021/07/17 03:21:50;;;;;;;42.20;12.35;;;;;;;14.26;85.80;102828.88;5010219;28;20021;-69
2021/07/17 03:24:15;;;;;;;38.53;11.35;;;;;;;14.26;85.61;102828.00;5028462;28;20040;-69
2021/07/17 03:26:41;;;;;;;41.65;12.50;;;;;;;14.21;85.99;102828.06;5027944;28;20043;-70
2021/07/17 03:29:06;;;;;;;55.35;12.65;;;;;;;14.17;86.02;102824.59;5028152;28;20186;-69
2021/07/17 03:31:32;;;;;;;44.75;12.30;;;;;;;14.14;86.38;102827.31;5027924;28;20029;-69
2021/07/17 03:33:58;;;;;;;38.92;12.00;;;;;;;14.12;86.38;102822.97;5028169;28;20033;-69
2021/07/17 03:36:23;;;;;;;39.03;9.93;;;;;;;14.11;86.32;102815.94;4993947;28;20427;-69
2021/07/17 03:38:49;;;;;;;41.95;11.68;;;;;;;14.10;86.42;102828.25;5010021;28;20052;-69
2021/07/17 03:41:14;;;;;;;33.80;11.18;;;;;;;14.11;86.18;102829.13;5026712;28;20033;-70
2021/07/17 03:43:40;;;;;;;36.75;11.50;;;;;;;14.09;86.64;102823.00;5016238;28;20521;-70
2021/07/17 03:46:05;;;;;;;33.63;10.27;;;;;;;14.05;86.61;102827.44;5022992;28;20439;-70
2021/07/17 03:48:30;;;;;;;36.60;11.40;;;;;;;14.03;87.03;102823.97;5001234;28;20056;-69
2021/07/17 03:50:56;;;;;;;47.20;12.20;;;;;;;14.03;87.17;102827.47;5013745;28;20037;-70
2021/07/17 03:53:21;;;;;;;36.35;11.00;;;;;;;14.00;87.13;102838.09;4998474;28;20036;-69
2021/07/17 03:55:47;;;;;;;53.95;13.05;;;;;;;14.01;87.47;102837.19;5023157;28;20025;-70
2021/07/17 03:58:12;;;;;;;37.30;11.50;;;;;;;14.02;87.38;102831.00;4997819;28;20037;-70
2021/07/17 04:00:38;;;;;;;34.80;11.77;;;;;;;14.03;87.18;102838.03;4990152;28;20018;-70
2021/07/17 04:03:04;;;;;;;45.15;12.73;;;;;;;14.03;87.31;102832.75;5022550;28;20025;-70
2021/07/17 04:05:29;;;;;;;39.65;12.18;;;;;;;14.05;87.43;102824.81;5019558;28;20033;-70
2021/07/17 04:07:55;;;;;;;47.67;12.43;;;;;;;14.07;87.52;102832.72;5024986;28;20019;-70
2021/07/17 04:10:20;;;;;;;38.72;11.40;;;;;;;14.09;88.05;102839.72;4998601;28;20075;-69
2021/07/17 04:12:46;;;;;;;49.25;11.48;;;;;;;14.10;88.12;102830.03;5013660;28;20026;-70
2021/07/17 04:15:11;;;;;;;37.92;11.80;;;;;;;14.12;88.08;102837.00;5026430;28;20018;-70
2021/07/17 04:17:38;;;;;;;39.47;12.10;;;;;;;14.13;88.31;102841.41;4996297;28;20049;-70
2021/07/17 04:20:05;;;;;;;40.63;10.73;;;;;;;14.19;87.94;102835.16;5011329;28;20447;-70
2021/07/17 04:22:30;;;;;;;37.75;11.70;;;;;;;14.22;87.98;102844.81;5012408;28;20054;-70
2021/07/17 04:24:55;;;;;;;41.38;12.27;;;;;;;14.26;87.65;102846.47;5006179;28;20061;-70
2021/07/17 04:27:21;;;;;;;38.58;11.43;;;;;;;14.32;87.64;102851.66;5009809;28;20150;-70
2021/07/17 04:29:46;;;;;;;39.45;11.57;;;;;;;14.35;88.28;102841.03;5026682;28;20116;-70
2021/07/17 04:32:11;;;;;;;47.78;11.18;;;;;;;14.39;87.76;102841.84;5009278;28;20056;-71
2021/07/17 04:34:37;;;;;;;44.95;12.20;;;;;;;14.43;88.27;102849.72;5026474;28;20426;-70
2021/07/17 04:37:02;;;;;;;37.45;10.60;;;;;;;14.47;88.12;102842.59;5026663;28;20021;-70
2021/07/17 04:39:28;;;;;;;41.72;11.57;;;;;;;14.53;87.86;102851.28;5026868;28;20486;-70
2021/07/17 04:41:53;;;;;;;37.90;10.75;;;;;;;14.61;87.67;102848.53;5013655;28;20429;-70
2021/07/17 04:44:18;;;;;;;38.80;12.23;;;;;;;14.67;87.61;102848.44;5026437;28;20496;-70
2021/07/17 04:46:44;;;;;;;42.20;11.45;;;;;;;14.74;87.98;102854.47;5023438;28;20125;-70
2021/07/17 04:49:09;;;;;;;37.67;11.43;;;;;;;14.83;87.48;102850.78;5013033;28;20101;-70
2021/07/17 04:51:34;;;;;;;45.17;10.38;;;;;;;14.92;87.56;102852.38;4997384;28;20509;-70
2021/07/17 04:54:00;;;;;;;39.83;10.68;;;;;;;15.00;87.20;102859.28;5027120;28;20528;-70
2021/07/17 04:56:25;;;;;;;40.05;9.93;;;;;;;15.08;87.29;102851.22;5027134;28;20498;-71
2021/07/17 04:58:51;;;;;;;38.13;10.13;;;;;;;15.17;87.30;102858.94;5009362;28;20667;-70
2021/07/17 05:01:18;;;;;;;42.60;10.45;;;;;;;15.23;87.11;102857.06;5011707;28;20035;-70
2021/07/17 05:03:44;;;;;;;36.40;9.90;;;;;;;15.33;86.74;102859.50;5030168;28;20371;-71
2021/07/17 05:06:10;;;;;;;41.10;10.20;;;;;;;15.43;86.41;102854.00;5015601;28;20040;-71
2021/07/17 05:08:35;;;;;;;41.50;10.45;;;;;;;15.54;86.30;102859.97;5029325;28;20501;-70
2021/07/17 05:11:01;;;;;;;39.20;10.30;;;;;;;15.61;86.27;102852.75;5029204;28;20557;-70
2021/07/17 05:13:27;;;;;;;41.70;10.57;;;;;;;15.73;85.78;102854.28;5012206;28;20028;-71
2021/07/17 05:15:52;;;;;;;36.75;10.32;;;;;;;15.85;85.55;102854.03;5030583;28;20017;-70
2021/07/17 05:18:18;;;;;;;47.88;10.20;;;;;;;15.95;85.44;102858.19;5030909;28;20028;-69
2021/07/17 05:20:43;;;;;;;34.20;9.15;;;;;;;16.03;85.02;102855.34;5030196;28;20029;-69
2021/07/17 05:23:10;;;;;;;38.03;9.30;;;;;;;16.14;84.51;102860.41;5030612;28;20033;-70
2021/07/17 05:25:37;;;;;;;33.05;8.70;;;;;;;16.26;84.28;102853.91;5013070;28;20039;-70
2021/07/17 05:28:03;;;;;;;39.40;8.95;;;;;;;16.41;83.91;102853.53;5013360;28;20045;-70
2021/07/17 05:30:28;;;;;;;27.02;7.43;;;;;;;16.58;83.34;102858.41;5012248;28;20029;-70
2021/07/17 05:32:53;;;;;;;28.70;9.20;;;;;;;16.65;82.64;102861.75;4993884;28;20144;-70
2021/07/17 05:35:19;;;;;;;25.10;7.43;;;;;;;16.77;82.72;102849.97;5029918;28;20106;-70
2021/07/17 05:37:44;;;;;;;25.40;6.70;;;;;;;16.93;82.11;102859.28;5030588;28;20026;-70
2021/07/17 05:40:10;;;;;;;33.28;7.18;;;;;;;17.01;82.00;102858.19;5030159;28;20026;-70
2021/07/17 05:42:36;;;;;;;33.45;8.00;;;;;;;17.15;80.74;102856.00;5030718;28;20046;-71
2021/07/17 05:45:01;;;;;;;24.67;6.00;;;;;;;17.29;80.51;102860.94;5012142;28;20029;-70
2021/07/17 05:47:28;;;;;;;27.23;6.13;;;;;;;17.45;80.19;102860.47;5030136;28;20437;-71
2021/07/17 05:49:53;;;;;;;23.33;6.60;;;;;;;17.57;79.71;102868.06;5022064;28;20030;-69
2021/07/17 05:52:18;;;;;;;22.77;5.82;;;;;;;17.70;79.29;102865.88;5030100;28;20048;-70
2021/07/17 05:54:44;;;;;;;21.25;5.80;;;;;;;17.72;77.98;102864.06;5028249;28;20029;-70
2021/07/17 05:57:10;;;;;;;26.23;5.97;;;;;;;17.85;77.80;102865.41;5028872;28;20526;-70
2021/07/17 05:59:36;;;;;;;19.40;5.15;;;;;;;17.88;77.64;102869.75;5011557;28;20084;-70
2021/07/17 06:02:02;;;;;;;25.95;6.18;;;;;;;17.97;76.85;102863.31;5012760;28;20031;-70
2021/07/17 06:04:28;;;;;;;26.52;5.20;;;;;;;18.03;76.67;102863.13;5029993;28;20075;-70
2021/07/17 06:06:53;;;;;;;22.75;5.30;;;;;;;18.09;76.61;102870.91;5012466;28;20038;-70
2021/07/17 06:09:18;;;;;;;29.10;6.28;;;;;;;18.15;75.76;102880.47;5029571;28;20057;-70
2021/07/17 06:11:44;;;;;;;23.98;5.50;;;;;;;18.34;76.39;102872.75;5009184;28;20030;-70
2021/07/17 06:14:09;;;;;;;16.88;5.00;;;;;;;18.44;75.17;102871.50;5010785;28;20372;-70
2021/07/17 06:16:34;;;;;;;22.85;5.95;;;;;;;18.48;75.24;102875.81;5018517;28;20475;-69
2021/07/17 06:19:00;;;;;;;16.95;5.03;;;;;;;18.58;73.86;102883.44;5026292;28;20048;-70
2021/07/17 06:21:25;;;;;;;20.60;5.15;;;;;;;18.56;74.80;102888.84;5029531;28;20028;-71
2021/07/17 06:23:51;;;;;;;21.85;5.55;;;;;;;18.70;73.76;102886.56;5029202;28;20079;-71
2021/07/17 06:26:16;;;;;;;16.85;4.53;;;;;;;18.88;73.08;102878.88;5029368;28;20025;-69
2021/07/17 06:28:41;;;;;;;18.73;5.22;;;;;;;18.95;73.02;102883.09;5028497;28;20109;-70
2021/07/17 06:31:07;;;;;;;18.25;4.47;;;;;;;19.13;72.92;102881.53;5029008;28;20025;-70
2021/07/17 06:33:34;;;;;;;20.60;4.72;;;;;;;19.27;72.13;102883.66;5011811;28;20028;-70
2021/07/17 06:35:59;;;;;;;23.10;4.18;;;;;;;19.46;71.46;102880.31;5028703;28;20056;-70
2021/07/17 06:38:24;;;;;;;16.40;5.10;;;;;;;19.59;70.65;102881.59;5011639;28;20129;-70
2021/07/17 06:40:50;;;;;;;18.73;4.63;;;;;;;19.51;70.86;102878.34;5028747;28;20382;-70
2021/07/17 06:43:15;;;;;;;19.85;4.47;;;;;;;19.33;71.04;102891.44;5028497;28;20047;-70
2021/07/17 06:45:40;;;;;;;12.23;4.35;;;;;;;19.54;71.61;102893.34;5028748;28;20386;-70
2021/07/17 06:48:06;;;;;;;22.40;5.32;;;;;;;19.76;70.98;102894.25;5007790;28;20041;-71
2021/07/17 06:50:31;;;;;;;12.52;3.78;;;;;;;19.98;71.10;102899.63;5008945;28;20105;-70
2021/07/17 06:52:56;;;;;;;19.90;4.95;;;;;;;19.99;68.74;102900.47;5020249;28;20045;-70
2021/07/17 06:55:22;;;;;;;15.70;4.57;;;;;;;20.04;68.82;102897.63;5027932;28;20029;-71
2021/07/17 06:57:47;;;;;;;15.77;4.07;;;;;;;20.30;68.72;102904.56;5040541;28;20390;-70
2021/07/17 07:00:15;;;;;;;15.80;4.22;;;;;;;20.43;68.08;102905.78;5007752;28;20037;-71
2021/07/17 07:02:40;;;;;;;15.23;4.60;;;;;;;20.52;66.47;102901.84;4997777;28;20026;-69
2021/07/17 07:05:07;;;;;;;20.20;4.15;;;;;;;20.60;66.57;102901.53;5024748;28;20052;-71
2021/07/17 07:07:33;;;;;;;13.80;3.80;;;;;;;20.68;67.14;102903.84;5027224;28;20032;-69
2021/07/17 07:09:58;;;;;;;15.23;4.57;;;;;;;20.88;66.03;102911.03;5025317;28;20022;-69
2021/07/17 07:12:23;;;;;;;12.75;3.63;;;;;;;20.88;65.26;102911.91;4989640;28;20033;-70
2021/07/17 07:14:49;;;;;;;18.33;4.45;;;;;;;20.92;64.98;102917.97;5012978;28;20018;-70
2021/07/17 07:17:14;;;;;;;12.43;3.88;;;;;;;20.85;65.99;102912.06;5017295;28;20412;-70
2021/07/17 07:19:39;;;;;;;12.85;3.90;;;;;;;20.98;65.12;102912.38;5015984;28;20061;-70
2021/07/17 07:22:05;;;;;;;12.13;4.22;;;;;;;21.00;65.09;102910.50;5006697;28;20022;-70
2021/07/17 07:24:31;;;;;;;11.68;3.70;;;;;;;21.20;64.60;102906.06;5016428;28;20067;-70
2021/07/17 07:26:56;;;;;;;10.45;3.00;;;;;;;21.39;63.67;102917.63;5007390;28;20521;-70
2021/07/17 07:29:25;;;;;;;12.30;3.30;;;;;;;21.63;63.14;102924.59;5014400;28;20083;-70
2021/07/17 07:31:51;;;;;;;11.10;3.50;;;;;;;21.82;62.33;102922.81;5009073;28;20130;-70
2021/07/17 07:34:17;;;;;;;13.80;3.97;;;;;;;21.88;61.11;102924.28;5009132;28;20546;-70
2021/07/17 07:36:42;;;;;;;15.68;3.47;;;;;;;22.03;61.63;102922.69;5007233;28;20159;-70
2021/07/17 07:39:08;;;;;;;9.27;3.05;;;;;;;22.18;61.32;102929.97;5015661;28;20394;-70
2021/07/17 07:41:33;;;;;;;10.60;3.42;;;;;;;22.18;61.21;102926.44;5008862;28;20391;-70
2021/07/17 07:43:59;;;;;;;15.27;3.33;;;;;;;22.32;60.85;102931.94;5017425;28;20032;-70
2021/07/17 07:46:24;;;;;;;11.13;3.00;;;;;;;22.35;60.28;102934.47;5008454;28;20059;-71
2021/07/17 07:48:49;;;;;;;10.90;3.30;;;;;;;22.36;59.42;102930.00;5019270;28;20133;-70
2021/07/17 07:51:15;;;;;;;11.32;2.75;;;;;;;22.49;59.23;102924.91;5019704;28;20025;-70
2021/07/17 07:53:40;;;;;;;11.45;3.17;;;;;;;22.58;59.39;102919.13;5018497;28;20013;-70
2021/07/17 07:56:06;;;;;;;12.75;3.33;;;;;;;22.69;58.75;102921.25;5015615;28;20033;-70
2021/07/17 07:58:31;;;;;;;10.20;3.17;;;;;;;22.64;58.16;102918.78;5015624;28;20108;-70
2021/07/17 08:00:57;;;;;;;11.70;3.67;;;;;;;22.61;58.60;102918.94;5018108;28;20044;-70
2021/07/17 08:03:22;;;;;;;8.27;2.47;;;;;;;22.93;58.74;102918.22;5024835;28;20071;-70
2021/07/17 08:05:47;;;;;;;9.75;3.05;;;;;;;23.20;57.52;102910.56;5026320;28;20100;-70
2021/07/17 08:08:13;;;;;;;9.35;2.70;;;;;;;23.26;55.92;102917.38;5024331;28;20493;-71
2021/07/17 08:10:38;;;;;;;8.73;2.60;;;;;;;23.32;55.36;102909.03;5025386;28;20029;-71
2021/07/17 08:13:03;;;;;;;7.93;2.90;;;;;;;23.58;55.64;102912.97;5003469;28;20017;-71
2021/07/17 08:15:29;;;;;;;13.50;3.00;;;;;;;23.74;54.33;102909.41;5011336;28;20059;-71
2021/07/17 08:17:54;;;;;;;8.20;2.88;;;;;;;23.84;52.95;102910.59;5025507;28;20021;-71
2021/07/17 08:20:20;;;;;;;9.25;2.40;;;;;;;23.61;52.51;102914.59;5024741;28;20029;-70
2021/07/17 08:22:45;;;;;;;7.45;2.50;;;;;;;23.74;52.86;102914.78;5025977;28;20022;-70
2021/07/17 08:25:11;;;;;;;10.82;2.88;;;;;;;23.99;53.10;102919.66;5007662;28;20021;-70
2021/07/17 08:27:37;;;;;;;10.10;2.92;;;;;;;24.31;51.95;102915.09;5007294;28;20091;-71
2021/07/17 08:30:03;;;;;;;8.95;2.38;;;;;;;24.71;50.80;102917.25;5006628;28;20108;-71
2021/07/17 08:32:28;;;;;;;8.43;2.75;;;;;;;25.24;49.10;102920.28;5007783;28;20045;-71
2021/07/17 08:34:54;;;;;;;6.75;2.50;;;;;;;25.55;48.16;102915.66;5022888;28;20018;-71
2021/07/17 08:37:19;;;;;;;4.72;2.15;;;;;;;26.15;46.86;102924.34;5029454;28;20022;-71
2021/07/17 08:39:45;;;;;;;7.72;2.50;;;;;;;26.65;45.88;102924.56;5028668;28;20096;-72
2021/07/17 08:42:10;;;;;;;16.35;2.78;;;;;;;27.27;44.28;102922.13;5029095;28;20044;-70
2021/07/17 08:44:39;;;;;;;9.13;2.70;;;;;;;27.88;42.71;102918.63;5010960;28;20035;-70
2021/07/17 08:47:06;;;;;;;13.95;2.88;;;;;;;27.72;43.18;102930.53;5029520;28;20037;-70
2021/07/17 08:49:33;;;;;;;8.57;2.58;;;;;;;28.08;43.01;102920.72;5029571;28;20027;-70
2021/07/17 08:52:00;;;;;;;9.23;2.55;;;;;;;28.21;42.45;102919.78;5030009;28;20068;-70
2021/07/17 08:54:26;;;;;;;9.35;3.00;;;;;;;28.02;42.42;102918.44;5011290;28;20033;-70
2021/07/17 08:56:52;;;;;;;9.68;3.03;;;;;;;28.37;41.75;102914.06;5030194;28;20029;-70
2021/07/17 08:59:18;;;;;;;6.63;2.50;;;;;;;29.01;40.38;102921.72;5029101;28;20041;-71
2021/07/17 09:01:43;;;;;;;11.60;2.80;;;;;;;29.12;40.46;102913.59;5026964;28;20544;-71
2021/07/17 09:04:08;;;;;;;7.60;2.47;;;;;;;29.25;39.38;102916.19;5028191;28;20052;-71
2021/07/17 09:06:35;;;;;;;7.78;2.63;;;;;;;29.23;39.20;102910.06;5028036;28;20022;-70
2021/07/17 09:09:02;;;;;;;6.85;2.38;;;;;;;29.46;38.08;102910.94;5026868;28;20072;-70
2021/07/17 09:11:40;;;;;;;7.47;2.55;;;;;;;29.55;39.14;102906.59;5027682;28;20030;-71
2021/07/17 09:14:06;;;;;;;10.68;2.67;;;;;;;29.83;36.35;102906.16;5026947;28;20576;-70
2021/07/17 09:16:32;;;;;;;7.80;2.58;;;;;;;30.08;35.35;102903.16;5028112;28;20086;-71
2021/07/17 09:18:58;;;;;;;8.48;2.40;;;;;;;29.92;36.16;102905.44;5025114;28;20037;-71
2021/07/17 09:21:34;;;;;;;8.80;2.33;;;;;;;29.56;37.04;102908.34;5026231;28;20030;-71
2021/07/17 09:24:05;;;;;;;7.85;2.00;;;;;;;30.13;36.15;102907.31;5011462;28;20028;-71
2021/07/17 09:26:34;;;;;;;6.65;2.20;;;;;;;30.36;35.84;102908.91;5028691;28;20029;-70
2021/07/17 09:29:12;;;;;;;8.10;2.67;;;;;;;29.62;35.97;102906.94;5027162;28;20025;-70
2021/07/17 09:31:53;;;;;;;9.73;2.53;;;;;;;29.95;36.31;102899.75;5024837;28;20026;-70
2021/07/17 09:34:20;;;;;;;7.03;2.20;;;;;;;29.93;36.97;102899.03;5018900;28;20056;-70
2021/07/17 09:36:54;;;;;;;7.00;2.20;;;;;;;30.49;34.89;102907.88;5015740;28;20029;-70
2021/07/17 09:39:22;;;;;;;7.38;2.38;;;;;;;29.85;36.76;102896.94;5010110;28;20021;-71
2021/07/17 09:41:57;;;;;;;5.85;2.45;;;;;;;30.79;35.07;102903.50;4993577;28;20063;-71
2021/07/17 09:44:24;;;;;;;8.40;2.58;;;;;;;30.65;34.30;102896.59;4988479;28;20021;-71
2021/07/17 09:46:50;;;;;;;7.85;2.22;;;;;;;30.88;34.14;102905.41;4995617;28;20036;-71
2021/07/17 09:49:19;;;;;;;9.55;2.53;;;;;;;30.69;34.81;102898.91;5015488;28;20120;-71
2021/07/17 09:51:45;;;;;;;9.10;2.80;;;;;;;30.83;35.09;102903.09;4996765;28;20026;-70
2021/07/17 09:54:10;;;;;;;6.63;2.50;;;;;;;30.71;35.92;102896.91;5012855;28;20076;-70
2021/07/17 09:56:39;;;;;;;9.27;2.78;;;;;;;29.94;37.27;102904.31;5015877;28;20037;-70
2021/07/17 09:59:10;;;;;;;8.38;2.45;;;;;;;30.65;35.68;102896.59;5011630;28;20021;-69
2021/07/17 10:01:37;;;;;;;7.20;2.60;;;;;;;30.76;35.10;102896.50;4993019;28;20821;-71
2021/07/17 10:04:05;;;;;;;8.52;2.55;;;;;;;31.65;34.52;102884.16;4993994;28;20022;-71
2021/07/17 10:06:46;;;;;;;7.05;2.60;;;;;;;30.95;34.52;102895.75;5008450;28;20084;-70
2021/07/17 10:09:11;;;;;;;10.57;2.55;;;;;;;30.74;34.71;102896.63;4995447;28;20018;-67
2021/07/17 10:11:37;;;;;;;6.57;2.33;;;;;;;31.11;35.31;102892.56;5011384;28;20340;-70
2021/07/17 10:14:21;;;;;;;10.60;2.60;;;;;;;31.37;34.46;102897.47;5012587;28;20092;-68
2021/07/17 10:16:48;;;;;;;11.50;2.70;;;;;;;31.17;33.58;102899.28;5007444;28;20032;-69
2021/07/17 10:19:15;;;;;;;9.20;2.17;;;;;;;31.14;35.43;102900.41;5011022;28;20021;-68
2021/07/17 10:21:40;;;;;;;8.10;2.80;;;;;;;31.48;33.58;102897.38;5010379;28;20088;-68
2021/07/17 10:24:06;;;;;;;9.77;2.70;;;;;;;30.81;33.67;102898.81;4994544;28;20029;-68
2021/07/17 10:26:32;;;;;;;7.85;2.30;;;;;;;31.46;33.30;102895.81;5008993;28;20108;-69
2021/07/17 10:29:02;;;;;;;6.97;2.42;;;;;;;31.05;34.06;102907.47;4993937;28;20088;-68
2021/07/17 10:31:27;;;;;;;8.82;2.30;;;;;;;30.94;32.87;102899.44;4992343;28;20053;-69
2021/07/17 10:33:54;;;;;;;7.57;2.38;;;;;;;31.27;32.84;102891.19;5001295;28;20025;-69
2021/07/17 10:36:20;;;;;;;7.32;2.22;;;;;;;31.33;32.15;102896.91;5026287;28;20113;-69
2021/07/17 10:38:46;;;;;;;5.85;2.45;;;;;;;31.81;33.14;102898.00;4999334;28;20060;-69
2021/07/17 10:41:14;;;;;;;5.68;2.08;;;;;;;31.11;32.62;102894.41;5013756;28;20457;-70
2021/07/17 10:43:41;;;;;;;8.10;2.05;;;;;;;31.08;33.90;102891.97;4992360;28;20022;-69
2021/07/17 10:46:26;;;;;;;9.48;2.60;;;;;;;31.53;33.44;102888.81;5007703;28;20025;-69
2021/07/17 10:48:53;;;;;;;6.20;2.05;;;;;;;30.96;33.48;102892.06;4990507;28;20026;-69
2021/07/17 10:51:22;;;;;;;8.85;2.30;;;;;;;31.28;33.68;102893.75;5004836;28;20094;-69
2021/07/17 10:53:53;;;;;;;5.32;1.95;;;;;;;31.34;33.54;102890.47;5017845;28;20061;-69
2021/07/17 10:56:27;;;;;;;9.07;2.15;;;;;;;32.05;30.85;102891.28;5002684;28;20032;-69
2021/07/17 10:59:13;;;;;;;5.00;1.83;;;;;;;31.79;31.54;102891.88;5024204;28;20032;-70
2021/07/17 11:01:57;;;;;;;5.30;1.85;;;;;;;31.97;31.44;102885.75;5010259;28;20120;-69
2021/07/17 11:04:49;;;;;;;7.70;2.10;;;;;;;31.82;32.16;102879.91;5024355;28;21747;-69
2021/07/17 11:07:17;;;;;;;3.22;1.60;;;;;;;32.00;30.74;102885.44;5016887;28;20020;-69
2021/07/17 11:09:56;;;;;;;7.05;1.83;;;;;;;32.06;31.29;102879.44;5007509;28;20029;-69
2021/07/17 11:12:30;;;;;;;4.82;1.95;;;;;;;32.54;30.70;102877.69;5011467;28;20025;-69
2021/07/17 11:15:03;;;;;;;8.52;1.98;;;;;;;32.77;31.33;102882.78;5007064;28;20017;-69